sensor_id;sensor_type;location;lat;lon;timestamp;pressure;altitude;pressure_sealevel;temperature;humidity
67377;BME280;54261;46.086;6.588;2023-05-22T00:03:34;92349.06;;;15.59;42.32
67377;BME280;54261;46.086;6.588;2023-05-22T00:08:37;92352.09;;;15.73;41.90
67377;BME280;54261;46.086;6.588;2023-05-22T00:13:39;92365.41;;;15.46;41.23
67377;BME280;54261;46.086;6.588;2023-05-22T00:18:41;92356.38;;;15.58;41.48
67377;BME280;54261;46.086;6.588;2023-05-22T00:23:43;92351.91;;;15.30;42.37
67377;BME280;54261;46.086;6.588;2023-05-22T00:28:46;92347.44;;;15.22;42.32
67377;BME280;54261;46.086;6.588;2023-05-22T00:33:48;92349.53;;;14.96;42.55
67377;BME280;54261;46.086;6.588;2023-05-22T00:38:50;92339.97;;;15.15;42.00
67377;BME280;54261;46.086;6.588;2023-05-22T00:43:52;92344.28;;;15.20;41.78
67377;BME280;54261;46.086;6.588;2023-05-22T00:48:54;92327.22;;;15.00;42.30
67377;BME280;54261;46.086;6.588;2023-05-22T00:53:56;92345.50;;;15.22;42.52
67377;BME280;54261;46.086;6.588;2023-05-22T00:58:58;92346.16;;;15.32;42.02
67377;BME280;54261;46.086;6.588;2023-05-22T01:04:00;92330.44;;;15.05;41.80
67377;BME280;54261;46.086;6.588;2023-05-22T01:09:03;92334.97;;;15.17;41.84
67377;BME280;54261;46.086;6.588;2023-05-22T01:14:14;92327.03;;;15.24;40.70
67377;BME280;54261;46.086;6.588;2023-05-22T01:20:11;92331.06;;;15.31;41.14
67377;BME280;54261;46.086;6.588;2023-05-22T01:35:01;92330.88;;;15.23;40.65
67377;BME280;54261;46.086;6.588;2023-05-22T01:40:04;92328.81;;;15.33;40.40
67377;BME280;54261;46.086;6.588;2023-05-22T01:45:09;92328.00;;;14.68;41.12
67377;BME280;54261;46.086;6.588;2023-05-22T01:50:13;92325.47;;;14.75;41.75
67377;BME280;54261;46.086;6.588;2023-05-22T01:55:20;92323.00;;;14.54;41.83
67377;BME280;54261;46.086;6.588;2023-05-22T02:00:28;92329.03;;;14.79;41.68
67377;BME280;54261;46.086;6.588;2023-05-22T02:05:33;92336.81;;;14.81;41.40
67377;BME280;54261;46.086;6.588;2023-05-22T02:10:39;92341.78;;;14.34;42.43
67377;BME280;54261;46.086;6.588;2023-05-22T02:15:45;92339.16;;;14.82;41.98
67377;BME280;54261;46.086;6.588;2023-05-22T02:20:47;92338.13;;;14.87;41.23
67377;BME280;54261;46.086;6.588;2023-05-22T02:25:49;92340.03;;;14.87;41.42
67377;BME280;54261;46.086;6.588;2023-05-22T02:30:51;92339.13;;;14.50;41.77
67377;BME280;54261;46.086;6.588;2023-05-22T02:35:53;92336.44;;;14.66;41.41
67377;BME280;54261;46.086;6.588;2023-05-22T02:40:55;92341.50;;;14.84;41.13
67377;BME280;54261;46.086;6.588;2023-05-22T02:45:57;92334.88;;;14.37;41.27
67377;BME280;54261;46.086;6.588;2023-05-22T02:50:59;92329.25;;;14.13;42.12
67377;BME280;54261;46.086;6.588;2023-05-22T02:56:00;92317.63;;;13.97;42.59
67377;BME280;54261;46.086;6.588;2023-05-22T03:01:04;92322.72;;;14.43;41.53
67377;BME280;54261;46.086;6.588;2023-05-22T03:06:09;92323.91;;;14.01;42.64
67377;BME280;54261;46.086;6.588;2023-05-22T03:11:11;92322.34;;;14.29;42.16
67377;BME280;54261;46.086;6.588;2023-05-22T03:16:14;92327.56;;;14.09;42.31
67377;BME280;54261;46.086;6.588;2023-05-22T03:21:19;92321.66;;;14.32;42.48
67377;BME280;54261;46.086;6.588;2023-05-22T03:26:21;92319.97;;;14.27;42.02
67377;BME280;54261;46.086;6.588;2023-05-22T03:31:27;92321.72;;;14.48;41.33
67377;BME280;54261;46.086;6.588;2023-05-22T03:36:37;92332.59;;;13.82;41.67
67377;BME280;54261;46.086;6.588;2023-05-22T03:41:39;92322.69;;;12.83;43.92
67377;BME280;54261;46.086;6.588;2023-05-22T03:46:42;92326.63;;;13.35;43.74
67377;BME280;54261;46.086;6.588;2023-05-22T03:51:44;92334.88;;;13.55;43.52
67377;BME280;54261;46.086;6.588;2023-05-22T03:56:46;92332.75;;;13.73;42.84
67377;BME280;54261;46.086;6.588;2023-05-22T04:01:47;92333.13;;;14.00;42.58
67377;BME280;54261;46.086;6.588;2023-05-22T04:06:51;92327.97;;;13.95;42.36
67377;BME280;54261;46.086;6.588;2023-05-22T04:11:54;92325.31;;;14.11;42.54
67377;BME280;54261;46.086;6.588;2023-05-22T04:16:56;92332.72;;;13.85;42.81
67377;BME280;54261;46.086;6.588;2023-05-22T04:21:58;92327.25;;;13.69;42.82
67377;BME280;54261;46.086;6.588;2023-05-22T04:27:00;92339.63;;;13.46;42.43
67377;BME280;54261;46.086;6.588;2023-05-22T04:32:03;92332.06;;;13.64;43.28
67377;BME280;54261;46.086;6.588;2023-05-22T04:37:08;92335.00;;;13.71;42.94
67377;BME280;54261;46.086;6.588;2023-05-22T04:42:14;92345.78;;;13.71;42.75
67377;BME280;54261;46.086;6.588;2023-05-22T04:47:16;92341.28;;;13.63;43.21
67377;BME280;54261;46.086;6.588;2023-05-22T04:52:19;92340.84;;;13.73;43.79
67377;BME280;54261;46.086;6.588;2023-05-22T04:57:22;92328.00;;;14.11;42.94
67377;BME280;54261;46.086;6.588;2023-05-22T05:02:26;92338.69;;;14.20;42.56
67377;BME280;54261;46.086;6.588;2023-05-22T05:07:28;92346.88;;;13.95;43.11
67377;BME280;54261;46.086;6.588;2023-05-22T05:12:31;92343.94;;;14.29;42.82
67377;BME280;54261;46.086;6.588;2023-05-22T05:17:32;92353.53;;;14.13;42.93
67377;BME280;54261;46.086;6.588;2023-05-22T05:22:35;92347.94;;;14.06;43.16
67377;BME280;54261;46.086;6.588;2023-05-22T05:27:39;92350.72;;;14.10;43.80
67377;BME280;54261;46.086;6.588;2023-05-22T05:32:42;92344.69;;;14.29;43.31
67377;BME280;54261;46.086;6.588;2023-05-22T05:37:56;92348.13;;;14.13;43.66
67377;BME280;54261;46.086;6.588;2023-05-22T05:43:00;92327.72;;;14.00;43.60
67377;BME280;54261;46.086;6.588;2023-05-22T05:48:03;92351.91;;;13.96;43.23
67377;BME280;54261;46.086;6.588;2023-05-22T05:53:07;92352.00;;;14.57;43.22
67377;BME280;54261;46.086;6.588;2023-05-22T05:58:09;92353.19;;;14.72;42.95
67377;BME280;54261;46.086;6.588;2023-05-22T06:03:25;92342.53;;;14.63;42.85
67377;BME280;54261;46.086;6.588;2023-05-22T06:08:35;92345.94;;;14.60;42.74
67377;BME280;54261;46.086;6.588;2023-05-22T06:13:37;92350.59;;;14.47;43.56
67377;BME280;54261;46.086;6.588;2023-05-22T06:18:39;92346.22;;;14.87;43.47
67377;BME280;54261;46.086;6.588;2023-05-22T06:23:41;92348.03;;;14.83;43.23
67377;BME280;54261;46.086;6.588;2023-05-22T06:28:44;92351.25;;;14.73;43.00
67377;BME280;54261;46.086;6.588;2023-05-22T06:33:46;92354.06;;;14.92;42.89
67377;BME280;54261;46.086;6.588;2023-05-22T06:38:49;92362.63;;;13.80;44.66
67377;BME280;54261;46.086;6.588;2023-05-22T06:44:10;92373.75;;;14.20;45.45
67377;BME280;54261;46.086;6.588;2023-05-22T06:49:13;92355.91;;;12.87;46.23
67377;BME280;54261;46.086;6.588;2023-05-22T06:54:22;92356.13;;;13.44;46.67
67377;BME280;54261;46.086;6.588;2023-05-22T06:59:29;92356.25;;;13.73;45.43
67377;BME280;54261;46.086;6.588;2023-05-22T07:04:40;92351.78;;;14.62;44.00
67377;BME280;54261;46.086;6.588;2023-05-22T07:09:46;92360.41;;;14.39;44.97
67377;BME280;54261;46.086;6.588;2023-05-22T07:14:49;92360.69;;;15.11;43.43
67377;BME280;54261;46.086;6.588;2023-05-22T07:19:51;92362.09;;;15.05;43.66
67377;BME280;54261;46.086;6.588;2023-05-22T07:24:53;92359.38;;;15.89;42.58
67377;BME280;54261;46.086;6.588;2023-05-22T07:29:57;92367.69;;;15.80;42.20
67377;BME280;54261;46.086;6.588;2023-05-22T07:34:59;92376.59;;;15.29;43.91
67377;BME280;54261;46.086;6.588;2023-05-22T07:40:03;92370.28;;;13.04;49.24
67377;BME280;54261;46.086;6.588;2023-05-22T07:45:07;92362.72;;;13.84;48.15
67377;BME280;54261;46.086;6.588;2023-05-22T07:50:09;92358.69;;;13.65;49.03
67377;BME280;54261;46.086;6.588;2023-05-22T07:55:14;92369.03;;;13.13;49.54
67377;BME280;54261;46.086;6.588;2023-05-22T08:00:17;92350.88;;;12.52;52.38
67377;BME280;54261;46.086;6.588;2023-05-22T08:05:20;92364.03;;;11.17;55.41
67377;BME280;54261;46.086;6.588;2023-05-22T08:10:22;92366.84;;;10.82;56.52
67377;BME280;54261;46.086;6.588;2023-05-22T08:15:23;92365.25;;;11.28;55.43
67377;BME280;54261;46.086;6.588;2023-05-22T08:20:25;92338.19;;;10.65;57.09
67377;BME280;54261;46.086;6.588;2023-05-22T08:25:27;92349.69;;;11.94;55.54
67377;BME280;54261;46.086;6.588;2023-05-22T08:30:29;92359.91;;;14.21;49.00
67377;BME280;54261;46.086;6.588;2023-05-22T08:35:31;92361.91;;;14.97;44.62
67377;BME280;54261;46.086;6.588;2023-05-22T08:40:35;92355.06;;;15.68;44.09
67377;BME280;54261;46.086;6.588;2023-05-22T08:45:43;92362.94;;;14.77;45.08
67377;BME280;54261;46.086;6.588;2023-05-22T08:50:52;92361.56;;;15.15;44.78
67377;BME280;54261;46.086;6.588;2023-05-22T08:55:58;92346.69;;;13.50;47.60
67377;BME280;54261;46.086;6.588;2023-05-22T09:01:01;92351.59;;;14.26;47.41
67377;BME280;54261;46.086;6.588;2023-05-22T09:06:03;92352.00;;;15.34;45.59
67377;BME280;54261;46.086;6.588;2023-05-22T09:11:11;92348.81;;;13.69;48.48
67377;BME280;54261;46.086;6.588;2023-05-22T09:16:13;92342.91;;;13.39;49.35
67377;BME280;54261;46.086;6.588;2023-05-22T09:21:16;92348.94;;;13.36;48.32
67377;BME280;54261;46.086;6.588;2023-05-22T09:26:30;92333.06;;;15.70;44.55
67377;BME280;54261;46.086;6.588;2023-05-22T09:31:40;92341.09;;;16.41;42.51
67377;BME280;54261;46.086;6.588;2023-05-22T09:36:44;92337.09;;;16.98;42.03
67377;BME280;54261;46.086;6.588;2023-05-22T09:41:46;92333.84;;;14.86;47.50
67377;BME280;54261;46.086;6.588;2023-05-22T09:46:47;92339.22;;;14.54;49.09
67377;BME280;54261;46.086;6.588;2023-05-22T09:51:51;92333.34;;;14.80;48.63
67377;BME280;54261;46.086;6.588;2023-05-22T09:56:56;92338.75;;;14.23;50.55
67377;BME280;54261;46.086;6.588;2023-05-22T10:02:00;92342.09;;;14.33;51.80
67377;BME280;54261;46.086;6.588;2023-05-22T10:07:05;92321.03;;;15.67;46.48
67377;BME280;54261;46.086;6.588;2023-05-22T10:12:08;92324.59;;;15.03;48.14
67377;BME280;54261;46.086;6.588;2023-05-22T10:17:11;92327.19;;;15.48;49.57
67377;BME280;54261;46.086;6.588;2023-05-22T10:22:13;92321.91;;;14.71;51.71
67377;BME280;54261;46.086;6.588;2023-05-22T10:27:21;92321.66;;;16.35;47.33
67377;BME280;54261;46.086;6.588;2023-05-22T10:32:46;92322.28;;;16.48;45.07
67377;BME280;54261;46.086;6.588;2023-05-22T10:38:03;92321.53;;;14.57;49.14
67377;BME280;54261;46.086;6.588;2023-05-22T10:43:08;92315.63;;;16.65;47.79
67377;BME280;54261;46.086;6.588;2023-05-22T10:48:10;92313.53;;;16.35;45.08
67377;BME280;54261;46.086;6.588;2023-05-22T10:53:24;92308.66;;;15.14;48.77
67377;BME280;54261;46.086;6.588;2023-05-22T10:58:28;92308.81;;;15.73;46.85
67377;BME280;54261;46.086;6.588;2023-05-22T11:08:58;92289.00;;;16.05;44.76
67377;BME280;54261;46.086;6.588;2023-05-22T11:14:03;92301.34;;;16.26;45.91
67377;BME280;54261;46.086;6.588;2023-05-22T11:19:06;92302.44;;;16.64;44.71
67377;BME280;54261;46.086;6.588;2023-05-22T11:24:23;92291.50;;;17.84;44.64
67377;BME280;54261;46.086;6.588;2023-05-22T11:29:25;92298.72;;;17.19;43.51
67377;BME280;54261;46.086;6.588;2023-05-22T11:34:28;92291.38;;;17.73;41.98
67377;BME280;54261;46.086;6.588;2023-05-22T11:39:31;92284.72;;;19.15;40.41
67377;BME280;54261;46.086;6.588;2023-05-22T11:44:33;92289.56;;;18.87;39.64
67377;BME280;54261;46.086;6.588;2023-05-22T11:49:35;92301.25;;;18.19;38.18
67377;BME280;54261;46.086;6.588;2023-05-22T11:54:36;92292.06;;;19.11;37.24
67377;BME280;54261;46.086;6.588;2023-05-22T11:59:43;92283.19;;;20.91;34.07
67377;BME280;54261;46.086;6.588;2023-05-22T12:04:46;92287.44;;;19.11;33.61
67377;BME280;54261;46.086;6.588;2023-05-22T12:09:48;92299.91;;;21.80;31.77
67377;BME280;54261;46.086;6.588;2023-05-22T12:14:50;92307.44;;;22.65;31.90
67377;BME280;54261;46.086;6.588;2023-05-22T12:19:52;92313.38;;;22.46;32.65
67377;BME280;54261;46.086;6.588;2023-05-22T12:24:54;92310.44;;;21.85;33.50
67377;BME280;54261;46.086;6.588;2023-05-22T12:29:56;92301.06;;;21.87;34.34
67377;BME280;54261;46.086;6.588;2023-05-22T12:34:58;92290.63;;;21.05;35.71
67377;BME280;54261;46.086;6.588;2023-05-22T12:40:03;92299.97;;;21.04;36.56
67377;BME280;54261;46.086;6.588;2023-05-22T12:45:05;92304.22;;;21.12;37.00
67377;BME280;54261;46.086;6.588;2023-05-22T12:50:07;92305.78;;;20.99;37.18
67377;BME280;54261;46.086;6.588;2023-05-22T12:55:10;92295.19;;;20.61;36.85
67377;BME280;54261;46.086;6.588;2023-05-22T13:00:12;92287.44;;;20.59;37.04
67377;BME280;54261;46.086;6.588;2023-05-22T13:05:14;92299.06;;;20.56;38.29
67377;BME280;54261;46.086;6.588;2023-05-22T13:10:16;92302.28;;;21.06;38.11
67377;BME280;54261;46.086;6.588;2023-05-22T13:15:19;92304.22;;;20.83;39.80
67377;BME280;54261;46.086;6.588;2023-05-22T13:20:21;92293.66;;;21.87;38.38
67377;BME280;54261;46.086;6.588;2023-05-22T13:25:24;92299.09;;;22.09;36.23
67377;BME280;54261;46.086;6.588;2023-05-22T13:30:26;92302.09;;;22.36;33.98
67377;BME280;54261;46.086;6.588;2023-05-22T13:35:29;92284.31;;;20.72;34.35
67377;BME280;54261;46.086;6.588;2023-05-22T13:40:30;92289.00;;;21.80;32.90
67377;BME280;54261;46.086;6.588;2023-05-22T13:45:32;92267.19;;;21.66;33.38
67377;BME280;54261;46.086;6.588;2023-05-22T13:50:34;92274.25;;;22.60;32.72
67377;BME280;54261;46.086;6.588;2023-05-22T13:55:36;92268.78;;;21.45;33.80
67377;BME280;54261;46.086;6.588;2023-05-22T14:00:38;92248.94;;;19.65;35.56
67377;BME280;54261;46.086;6.588;2023-05-22T14:05:40;92257.75;;;20.18;34.04
67377;BME280;54261;46.086;6.588;2023-05-22T14:10:42;92240.88;;;19.20;33.69
67377;BME280;54261;46.086;6.588;2023-05-22T14:15:44;92236.06;;;20.91;32.29
67377;BME280;54261;46.086;6.588;2023-05-22T14:20:49;92225.19;;;22.34;31.14
67377;BME280;54261;46.086;6.588;2023-05-22T14:25:51;92228.44;;;19.93;33.42
67377;BME280;54261;46.086;6.588;2023-05-22T14:30:54;92236.75;;;20.37;31.30
67377;BME280;54261;46.086;6.588;2023-05-22T14:35:56;92240.78;;;22.41;31.11
67377;BME280;54261;46.086;6.588;2023-05-22T14:40:59;92192.56;;;24.26;27.86
67377;BME280;54261;46.086;6.588;2023-05-22T14:46:01;92229.91;;;24.16;27.98
67377;BME280;54261;46.086;6.588;2023-05-22T14:51:03;92221.22;;;23.06;28.68
67377;BME280;54261;46.086;6.588;2023-05-22T14:56:05;92225.53;;;20.67;29.31
67377;BME280;54261;46.086;6.588;2023-05-22T15:01:07;92219.34;;;24.15;26.32
67377;BME280;54261;46.086;6.588;2023-05-22T15:06:09;92223.97;;;23.48;26.28
67377;BME280;54261;46.086;6.588;2023-05-22T15:11:11;92205.53;;;23.91;26.18
67377;BME280;54261;46.086;6.588;2023-05-22T15:16:13;92217.19;;;21.91;29.42
67377;BME280;54261;46.086;6.588;2023-05-22T15:21:14;92211.75;;;21.87;32.24
67377;BME280;54261;46.086;6.588;2023-05-22T15:26:17;92216.56;;;21.43;33.13
67377;BME280;54261;46.086;6.588;2023-05-22T15:31:19;92212.09;;;22.71;30.67
67377;BME280;54261;46.086;6.588;2023-05-22T15:36:22;92226.09;;;22.84;30.87
67377;BME280;54261;46.086;6.588;2023-05-22T15:41:24;92215.38;;;17.43;37.68
67377;BME280;54261;46.086;6.588;2023-05-22T15:46:26;92225.84;;;18.05;37.59
67377;BME280;54261;46.086;6.588;2023-05-22T15:51:28;92221.78;;;19.80;35.57
67377;BME280;54261;46.086;6.588;2023-05-22T15:56:30;92225.81;;;21.78;32.82
67377;BME280;54261;46.086;6.588;2023-05-22T16:01:32;92232.22;;;22.99;31.22
67377;BME280;54261;46.086;6.588;2023-05-22T16:06:35;92225.38;;;23.25;29.46
67377;BME280;54261;46.086;6.588;2023-05-22T16:11:37;92224.72;;;22.50;30.33
67377;BME280;54261;46.086;6.588;2023-05-22T16:16:39;92233.13;;;24.42;29.03
67377;BME280;54261;46.086;6.588;2023-05-22T16:21:41;92225.47;;;23.57;28.57
67377;BME280;54261;46.086;6.588;2023-05-22T16:26:43;92237.94;;;23.16;29.07
67377;BME280;54261;46.086;6.588;2023-05-22T16:31:45;92245.59;;;22.19;31.50
67377;BME280;54261;46.086;6.588;2023-05-22T16:36:47;92240.63;;;21.81;31.40
67377;BME280;54261;46.086;6.588;2023-05-22T16:41:49;92236.06;;;23.51;29.51
67377;BME280;54261;46.086;6.588;2023-05-22T16:46:54;92228.53;;;23.62;28.99
67377;BME280;54261;46.086;6.588;2023-05-22T16:51:56;92243.72;;;23.29;29.44
67377;BME280;54261;46.086;6.588;2023-05-22T16:56:58;92245.72;;;24.95;29.74
67377;BME280;54261;46.086;6.588;2023-05-22T17:02:00;92247.28;;;23.18;31.10
67377;BME280;54261;46.086;6.588;2023-05-22T17:07:02;92263.84;;;25.36;29.48
67377;BME280;54261;46.086;6.588;2023-05-22T17:12:04;92263.81;;;26.08;28.00
67377;BME280;54261;46.086;6.588;2023-05-22T17:17:06;92258.72;;;25.38;29.06
67377;BME280;54261;46.086;6.588;2023-05-22T17:22:08;92259.16;;;25.37;30.22
67377;BME280;54261;46.086;6.588;2023-05-22T17:27:10;92252.22;;;25.04;30.60
67377;BME280;54261;46.086;6.588;2023-05-22T17:32:18;92262.72;;;24.55;30.31
67377;BME280;54261;46.086;6.588;2023-05-22T17:37:20;92272.59;;;23.75;31.15
67377;BME280;54261;46.086;6.588;2023-05-22T17:42:22;92271.66;;;23.93;30.61
67377;BME280;54261;46.086;6.588;2023-05-22T17:47:24;92288.34;;;22.54;31.84
67377;BME280;54261;46.086;6.588;2023-05-22T17:52:26;92296.06;;;21.49;33.31
67377;BME280;54261;46.086;6.588;2023-05-22T17:57:28;92300.59;;;22.17;32.98
67377;BME280;54261;46.086;6.588;2023-05-22T18:02:30;92304.63;;;20.93;35.20
67377;BME280;54261;46.086;6.588;2023-05-22T18:07:32;92305.78;;;20.84;35.24
67377;BME280;54261;46.086;6.588;2023-05-22T18:12:33;92311.63;;;21.05;35.47
67377;BME280;54261;46.086;6.588;2023-05-22T18:17:38;92298.31;;;20.59;36.17
67377;BME280;54261;46.086;6.588;2023-05-22T18:22:42;92315.56;;;21.11;35.49
67377;BME280;54261;46.086;6.588;2023-05-22T18:27:43;92324.50;;;20.97;35.82
67377;BME280;54261;46.086;6.588;2023-05-22T18:32:45;92323.34;;;21.01;35.94
67377;BME280;54261;46.086;6.588;2023-05-22T18:37:47;92330.56;;;20.43;35.81
67377;BME280;54261;46.086;6.588;2023-05-22T18:42:49;92327.94;;;20.68;34.79
67377;BME280;54261;46.086;6.588;2023-05-22T18:47:51;92323.34;;;21.27;33.59
67377;BME280;54261;46.086;6.588;2023-05-22T18:52:54;92319.81;;;21.37;33.66
67377;BME280;54261;46.086;6.588;2023-05-22T18:57:56;92322.56;;;19.94;34.83
67377;BME280;54261;46.086;6.588;2023-05-22T19:02:58;92331.50;;;19.95;35.80
67377;BME280;54261;46.086;6.588;2023-05-22T19:08:00;92316.91;;;20.25;35.38
67377;BME280;54261;46.086;6.588;2023-05-22T19:13:02;92322.81;;;19.67;35.59
67377;BME280;54261;46.086;6.588;2023-05-22T19:18:04;92324.56;;;20.05;35.70
67377;BME280;54261;46.086;6.588;2023-05-22T19:23:06;92339.38;;;19.51;35.93
67377;BME280;54261;46.086;6.588;2023-05-22T19:28:10;92338.38;;;19.22;36.66
67377;BME280;54261;46.086;6.588;2023-05-22T19:33:12;92334.19;;;18.86;37.16
67377;BME280;54261;46.086;6.588;2023-05-22T19:38:15;92337.84;;;18.29;38.93
67377;BME280;54261;46.086;6.588;2023-05-22T19:43:17;92327.00;;;18.67;38.41
67377;BME280;54261;46.086;6.588;2023-05-22T19:48:19;92326.09;;;18.94;38.05
67377;BME280;54261;46.086;6.588;2023-05-22T19:53:21;92333.97;;;19.02;37.23
67377;BME280;54261;46.086;6.588;2023-05-22T19:58:22;92344.41;;;18.62;37.75
67377;BME280;54261;46.086;6.588;2023-05-22T20:03:24;92354.16;;;18.29;39.03
67377;BME280;54261;46.086;6.588;2023-05-22T20:08:27;92356.78;;;17.68;40.12
67377;BME280;54261;46.086;6.588;2023-05-22T20:13:29;92359.25;;;18.34;39.35
67377;BME280;54261;46.086;6.588;2023-05-22T20:18:30;92363.88;;;18.03;39.22
67377;BME280;54261;46.086;6.588;2023-05-22T20:23:32;92366.44;;;17.92;40.07
67377;BME280;54261;46.086;6.588;2023-05-22T20:28:34;92338.00;;;17.83;39.68
67377;BME280;54261;46.086;6.588;2023-05-22T20:33:36;92389.66;;;18.82;38.20
67377;BME280;54261;46.086;6.588;2023-05-22T20:38:38;92391.94;;;18.15;38.70
67377;BME280;54261;46.086;6.588;2023-05-22T20:43:43;92391.44;;;17.78;39.74
67377;BME280;54261;46.086;6.588;2023-05-22T20:48:45;92391.78;;;17.50;39.68
67377;BME280;54261;46.086;6.588;2023-05-22T20:53:49;92395.16;;;17.67;39.92
67377;BME280;54261;46.086;6.588;2023-05-22T20:58:53;92412.75;;;17.76;39.60
67377;BME280;54261;46.086;6.588;2023-05-22T21:03:55;92421.41;;;16.92;40.82
67377;BME280;54261;46.086;6.588;2023-05-22T21:08:58;92425.34;;;17.42;40.29
67377;BME280;54261;46.086;6.588;2023-05-22T21:14:02;92436.44;;;18.06;39.35
67377;BME280;54261;46.086;6.588;2023-05-22T21:19:04;92429.69;;;17.46;39.48
67377;BME280;54261;46.086;6.588;2023-05-22T21:24:07;92432.53;;;16.87;40.73
67377;BME280;54261;46.086;6.588;2023-05-22T21:29:10;92442.16;;;17.28;40.86
67377;BME280;54261;46.086;6.588;2023-05-22T21:34:12;92436.47;;;16.90;41.00
67377;BME280;54261;46.086;6.588;2023-05-22T21:39:14;92443.41;;;17.81;39.94
67377;BME280;54261;46.086;6.588;2023-05-22T21:44:16;92436.88;;;17.35;39.93
67377;BME280;54261;46.086;6.588;2023-05-22T21:49:18;92437.56;;;17.08;40.57
67377;BME280;54261;46.086;6.588;2023-05-22T21:54:20;92442.69;;;17.14;40.39
67377;BME280;54261;46.086;6.588;2023-05-22T21:59:22;92445.44;;;17.60;39.44
67377;BME280;54261;46.086;6.588;2023-05-22T22:04:24;92438.28;;;17.05;39.70
67377;BME280;54261;46.086;6.588;2023-05-22T22:09:26;92435.81;;;17.20;40.15
67377;BME280;54261;46.086;6.588;2023-05-22T22:14:28;92440.09;;;17.44;39.20
67377;BME280;54261;46.086;6.588;2023-05-22T22:19:30;92453.16;;;17.15;39.53
67377;BME280;54261;46.086;6.588;2023-05-22T22:24:32;92454.84;;;16.80;40.44
67377;BME280;54261;46.086;6.588;2023-05-22T22:29:34;92446.56;;;16.93;40.10
67377;BME280;54261;46.086;6.588;2023-05-22T22:34:36;92440.81;;;16.94;40.48
67377;BME280;54261;46.086;6.588;2023-05-22T22:39:38;92452.22;;;16.84;40.18
67377;BME280;54261;46.086;6.588;2023-05-22T22:44:40;92444.69;;;17.17;39.97
67377;BME280;54261;46.086;6.588;2023-05-22T22:49:42;92432.13;;;16.65;40.11
67377;BME280;54261;46.086;6.588;2023-05-22T22:54:44;92445.56;;;16.62;40.32
67377;BME280;54261;46.086;6.588;2023-05-22T22:59:46;92438.81;;;16.91;40.04
67377;BME280;54261;46.086;6.588;2023-05-22T23:04:47;92448.88;;;17.14;39.18
67377;BME280;54261;46.086;6.588;2023-05-22T23:09:49;92404.94;;;16.82;39.17
67377;BME280;54261;46.086;6.588;2023-05-22T23:14:51;92444.56;;;16.31;41.27
67377;BME280;54261;46.086;6.588;2023-05-22T23:19:54;92440.25;;;15.94;42.58
67377;BME280;54261;46.086;6.588;2023-05-22T23:24:56;92448.84;;;15.80;42.78
67377;BME280;54261;46.086;6.588;2023-05-22T23:29:57;92453.19;;;16.56;41.39
67377;BME280;54261;46.086;6.588;2023-05-22T23:34:59;92455.50;;;16.54;40.44
67377;BME280;54261;46.086;6.588;2023-05-22T23:40:01;92460.84;;;16.15;40.97
67377;BME280;54261;46.086;6.588;2023-05-22T23:45:03;92468.19;;;15.98;41.75
67377;BME280;54261;46.086;6.588;2023-05-22T23:50:06;92464.75;;;16.53;40.79
67377;BME280;54261;46.086;6.588;2023-05-22T23:55:08;92467.34;;;15.78;41.08
